Time;durP1;ratioP1;P1;durP2;ratioP2;P2;SDS_P1;SDS_P2;PMS_P1;PMS_P2;Temp;Humidity;BMP_temperature;BMP_pressure;BME280_temperature;BME280_humidity;BME280_pressure;Samples;Min_cycle;Max_cycle;Signal;HPM_P1;HPM_P2
2024/02/25 00:00:04;;;;;;;1.65;0.75;;;12.10;87.20;;;;;;5032536;28;20123;-76
2024/02/25 00:02:31;;;;;;;1.92;0.60;;;12.10;87.40;;;;;;5032086;28;20040;-78
2024/02/25 00:04:57;;;;;;;1.23;0.70;;;12.10;87.00;;;;;;5050433;28;20063;-78
2024/02/25 00:07:22;;;;;;;1.63;0.90;;;12.10;87.00;;;;;;5050344;28;20037;-78
2024/02/25 00:09:48;;;;;;;1.15;0.70;;;12.10;87.10;;;;;;5032437;28;20493;-76
2024/02/25 00:12:13;;;;;;;0.68;0.50;;;12.10;87.10;;;;;;5032107;28;20021;-78
2024/02/25 00:14:39;;;;;;;1.10;0.70;;;12.00;87.00;;;;;;5050576;28;20481;-78
2024/02/25 00:17:04;;;;;;;1.25;0.73;;;12.00;87.00;;;;;;5050777;28;20029;-78
2024/02/25 00:19:30;;;;;;;1.30;0.73;;;12.10;87.00;;;;;;5050772;28;20459;-77
2024/02/25 00:21:56;;;;;;;2.05;0.80;;;12.10;87.00;;;;;;5032427;28;20035;-79
2024/02/25 00:24:22;;;;;;;1.13;0.70;;;12.10;86.90;;;;;;5050463;28;20042;-79
2024/02/25 00:26:48;;;;;;;1.17;0.65;;;12.10;87.00;;;;;;5050219;28;20103;-78
2024/02/25 00:29:15;;;;;;;1.33;0.70;;;12.10;86.90;;;;;;5032469;28;20029;-78
2024/02/25 00:31:41;;;;;;;1.20;0.75;;;12.00;86.80;;;;;;5032656;28;20032;-78
2024/02/25 00:34:07;;;;;;;1.50;0.50;;;12.10;87.00;;;;;;5032111;28;20052;-78
2024/02/25 00:36:32;;;;;;;1.13;0.73;;;12.00;86.90;;;;;;5032098;28;20532;-78
2024/02/25 00:38:58;;;;;;;0.80;0.60;;;12.00;86.90;;;;;;5032213;28;20032;-78
2024/02/25 00:41:24;;;;;;;0.50;0.50;;;12.00;86.90;;;;;;5027262;28;20033;-78
2024/02/25 00:43:49;;;;;;;1.13;0.70;;;12.00;86.80;;;;;;5028532;28;20556;-78
2024/02/25 00:46:15;;;;;;;1.35;0.70;;;12.00;86.90;;;;;;5028650;28;20029;-78
2024/02/25 00:48:40;;;;;;;0.88;0.60;;;12.00;87.00;;;;;;5010745;28;20029;-78
2024/02/25 00:51:06;;;;;;;0.98;0.60;;;12.00;87.00;;;;;;5010791;28;20063;-78
2024/02/25 00:53:32;;;;;;;1.10;0.63;;;12.10;87.10;;;;;;5010051;28;20034;-78
2024/02/25 00:55:58;;;;;;;0.68;0.60;;;12.00;87.00;;;;;;5027233;28;20496;-78
2024/02/25 00:58:23;;;;;;;0.93;0.70;;;12.00;87.00;;;;;;5027740;28;20025;-78
2024/02/25 01:00:49;;;;;;;2.28;0.85;;;12.00;87.00;;;;;;5028624;28;20044;-76
2024/02/25 01:03:14;;;;;;;0.95;0.60;;;12.00;87.00;;;;;;5028319;28;20120;-78
2024/02/25 01:05:40;;;;;;;0.70;0.50;;;12.00;86.90;;;;;;5028407;28;20416;-77
2024/02/25 01:08:06;;;;;;;0.85;0.60;;;12.00;86.80;;;;;;5028313;28;20116;-78
2024/02/25 01:10:31;;;;;;;1.17;0.68;;;12.00;86.80;;;;;;5032125;28;20055;-77
2024/02/25 01:12:57;;;;;;;0.77;0.60;;;12.00;86.80;;;;;;5032292;28;20022;-79
2024/02/25 01:15:22;;;;;;;1.10;0.57;;;12.00;86.70;;;;;;5032265;28;20455;-78
2024/02/25 01:17:48;;;;;;;1.58;0.70;;;12.00;86.80;;;;;;5033568;28;20045;-79
2024/02/25 01:20:13;;;;;;;1.67;0.80;;;12.00;86.50;;;;;;5032253;28;20116;-78
2024/02/25 01:22:39;;;;;;;1.23;0.63;;;12.00;86.60;;;;;;5033312;28;20052;-78
2024/02/25 01:25:05;;;;;;;1.88;0.70;;;12.00;86.70;;;;;;5032398;28;20390;-79
2024/02/25 01:27:31;;;;;;;1.13;0.70;;;12.00;86.70;;;;;;5033257;28;20034;-77
2024/02/25 01:29:57;;;;;;;1.60;0.70;;;12.00;86.60;;;;;;5032167;28;20024;-78
2024/02/25 01:32:22;;;;;;;0.82;0.60;;;12.00;86.60;;;;;;5033218;28;20101;-79
2024/02/25 01:34:50;;;;;;;1.63;0.60;;;12.00;86.70;;;;;;5031895;28;20413;-78
2024/02/25 01:37:15;;;;;;;0.90;0.60;;;12.00;86.50;;;;;;5033751;28;20025;-78
2024/02/25 01:39:41;;;;;;;1.05;0.70;;;12.00;86.70;;;;;;5032263;28;20025;-78
2024/02/25 01:42:07;;;;;;;1.52;0.75;;;12.00;86.60;;;;;;5033123;28;20060;-78
2024/02/25 01:44:46;;;;;;;0.95;0.57;;;12.00;86.40;;;;;;5031642;28;20115;-78
2024/02/25 01:47:12;;;;;;;0.98;0.50;;;12.00;86.50;;;;;;5033006;28;20079;-78
2024/02/25 01:49:38;;;;;;;1.60;0.60;;;12.00;86.60;;;;;;5033142;28;20025;-78
2024/02/25 01:52:03;;;;;;;1.08;0.60;;;12.00;86.50;;;;;;5032699;28;20060;-78
2024/02/25 01:54:29;;;;;;;1.50;0.70;;;12.00;86.60;;;;;;5031352;28;20044;-76
2024/02/25 01:56:56;;;;;;;0.90;0.50;;;12.00;86.50;;;;;;5032714;28;20330;-78
2024/02/25 01:59:21;;;;;;;1.60;0.65;;;12.00;86.20;;;;;;5031582;28;20025;-77
2024/02/25 02:01:47;;;;;;;1.35;0.70;;;12.00;86.40;;;;;;5032865;28;20478;-76
2024/02/25 02:04:12;;;;;;;1.10;0.70;;;12.00;86.50;;;;;;5032826;28;20109;-78
2024/02/25 02:06:38;;;;;;;0.85;0.60;;;12.00;86.20;;;;;;5032599;28;20034;-77
2024/02/25 02:09:04;;;;;;;0.93;0.60;;;12.00;86.40;;;;;;5032748;28;20062;-79
2024/02/25 02:11:29;;;;;;;1.00;0.60;;;11.90;86.30;;;;;;5032574;28;20021;-78
2024/02/25 02:13:55;;;;;;;2.03;0.55;;;12.00;86.00;;;;;;5014597;28;20478;-78
2024/02/25 02:16:21;;;;;;;1.27;0.50;;;12.00;86.30;;;;;;5031045;28;20040;-78
2024/02/25 02:18:47;;;;;;;1.10;0.60;;;12.00;86.20;;;;;;5032429;28;20033;-78
2024/02/25 02:21:17;;;;;;;0.80;0.70;;;12.00;86.30;;;;;;5031170;28;20022;-78
2024/02/25 02:23:43;;;;;;;0.98;0.60;;;12.00;86.40;;;;;;5033833;28;20029;-78
2024/02/25 02:26:09;;;;;;;1.13;0.70;;;12.00;86.00;;;;;;5052391;28;20025;-78
2024/02/25 02:28:34;;;;;;;2.80;0.77;;;12.00;86.30;;;;;;5052478;28;20033;-78
2024/02/25 02:31:00;;;;;;;1.05;0.68;;;12.00;86.40;;;;;;5034742;28;20017;-78
2024/02/25 02:33:25;;;;;;;0.93;0.60;;;12.00;86.10;;;;;;5034232;28;20456;-78
2024/02/25 02:35:51;;;;;;;1.15;0.70;;;12.00;86.00;;;;;;5052181;28;20114;-78
2024/02/25 02:38:17;;;;;;;0.88;0.52;;;11.90;85.70;;;;;;5052177;28;20029;-78
2024/02/25 02:40:43;;;;;;;1.20;0.63;;;11.90;86.00;;;;;;5034226;28;20029;-76
2024/02/25 02:43:08;;;;;;;1.05;0.60;;;12.00;86.00;;;;;;5033630;28;20524;-79
2024/02/25 02:45:34;;;;;;;1.15;0.70;;;12.00;85.90;;;;;;5051704;28;20029;-74
2024/02/25 02:47:59;;;;;;;0.70;0.50;;;12.00;86.00;;;;;;5034137;28;20116;-77
2024/02/25 02:50:25;;;;;;;1.52;0.80;;;12.00;86.10;;;;;;5033626;28;20025;-77
2024/02/25 02:52:51;;;;;;;1.20;0.65;;;12.00;86.20;;;;;;5051571;28;20060;-76
2024/02/25 02:55:16;;;;;;;1.33;0.73;;;12.00;86.20;;;;;;5033649;28;20068;-77
2024/02/25 02:57:42;;;;;;;0.60;0.52;;;12.00;86.00;;;;;;5051643;28;20089;-76
2024/02/25 03:00:08;;;;;;;1.42;0.52;;;12.00;85.90;;;;;;5033608;28;20032;-79
2024/02/25 03:02:34;;;;;;;0.75;0.60;;;12.00;85.80;;;;;;5051508;28;20079;-79
2024/02/25 03:05:00;;;;;;;1.65;0.80;;;12.00;85.90;;;;;;5051440;28;20017;-77
2024/02/25 03:07:26;;;;;;;1.80;0.80;;;12.00;86.00;;;;;;5033570;28;20032;-78
2024/02/25 03:09:52;;;;;;;0.73;0.60;;;11.90;85.90;;;;;;5033461;28;20029;-76
2024/02/25 03:12:17;;;;;;;1.08;0.73;;;11.90;85.60;;;;;;5033048;28;20029;-78
2024/02/25 03:14:43;;;;;;;1.08;0.60;;;11.90;85.60;;;;;;5051474;28;20389;-78
2024/02/25 03:17:09;;;;;;;1.67;0.60;;;12.00;85.80;;;;;;5033312;28;20017;-78
2024/02/25 03:19:34;;;;;;;1.23;0.70;;;12.00;85.90;;;;;;5033242;28;20120;-79
2024/02/25 03:22:00;;;;;;;1.95;0.80;;;11.90;85.40;;;;;;5051222;28;20029;-78
2024/02/25 03:24:25;;;;;;;1.00;0.60;;;11.90;85.50;;;;;;5033227;28;20033;-78
2024/02/25 03:26:51;;;;;;;1.48;0.70;;;12.00;85.50;;;;;;5033214;28;20474;-79
2024/02/25 03:29:17;;;;;;;1.73;0.70;;;12.00;85.50;;;;;;5051183;28;20035;-78
2024/02/25 03:31:43;;;;;;;1.00;0.50;;;12.00;85.70;;;;;;5050949;28;20040;-78
2024/02/25 03:34:09;;;;;;;1.88;0.88;;;11.90;85.40;;;;;;5032332;28;20293;-78
2024/02/25 03:36:35;;;;;;;0.75;0.60;;;11.90;85.50;;;;;;5050753;28;20087;-77
2024/02/25 03:39:01;;;;;;;2.72;1.02;;;12.00;85.60;;;;;;5051002;28;20071;-79
2024/02/25 03:41:26;;;;;;;1.30;0.63;;;12.00;85.70;;;;;;5032864;28;20051;-79
2024/02/25 03:43:51;;;;;;;1.17;0.60;;;11.90;85.60;;;;;;5032955;28;20041;-78
2024/02/25 03:46:17;;;;;;;1.10;0.70;;;12.00;85.90;;;;;;5032884;28;20033;-78
2024/02/25 03:48:42;;;;;;;2.45;0.80;;;11.90;85.60;;;;;;5032914;28;20078;-78
2024/02/25 03:51:08;;;;;;;1.55;0.88;;;12.00;85.80;;;;;;5032743;28;20028;-78
2024/02/25 03:53:33;;;;;;;1.08;0.77;;;12.00;85.60;;;;;;5050609;28;20497;-78
2024/02/25 03:55:59;;;;;;;1.05;0.65;;;12.00;85.30;;;;;;5046392;28;20225;-78
2024/02/25 03:58:24;;;;;;;1.42;0.93;;;11.90;85.50;;;;;;5032308;28;20032;-78
2024/02/25 04:00:50;;;;;;;2.55;0.90;;;12.00;85.60;;;;;;5032418;28;20024;-78
2024/02/25 04:03:15;;;;;;;1.30;0.80;;;11.90;85.50;;;;;;5049936;28;20032;-78
2024/02/25 04:05:41;;;;;;;1.75;0.80;;;12.00;85.50;;;;;;5050210;28;20079;-78
2024/02/25 04:08:07;;;;;;;1.70;0.90;;;11.90;85.00;;;;;;5050610;28;20072;-78
2024/02/25 04:10:32;;;;;;;1.42;0.90;;;11.80;85.30;;;;;;5050501;28;20569;-78
2024/02/25 04:12:58;;;;;;;1.20;0.80;;;11.90;85.20;;;;;;5032321;28;20037;-79
2024/02/25 04:15:23;;;;;;;1.35;0.88;;;11.90;85.30;;;;;;5050529;28;20131;-77
2024/02/25 04:17:49;;;;;;;1.38;0.85;;;11.90;85.70;;;;;;5050190;28;20032;-78
2024/02/25 04:20:15;;;;;;;1.02;0.73;;;11.90;85.70;;;;;;5050373;28;20052;-78
2024/02/25 04:22:40;;;;;;;1.45;0.90;;;11.90;85.60;;;;;;5049967;28;20478;-78
2024/02/25 04:25:06;;;;;;;2.05;0.90;;;11.90;85.70;;;;;;5032523;28;20500;-78
2024/02/25 04:27:32;;;;;;;1.80;0.90;;;11.90;85.80;;;;;;5050042;28;20503;-78
2024/02/25 04:29:57;;;;;;;2.13;0.90;;;11.90;85.90;;;;;;5032344;28;20425;-78
2024/02/25 04:32:22;;;;;;;1.75;1.00;;;11.90;85.60;;;;;;5032079;28;20021;-78
2024/02/25 04:34:48;;;;;;;1.35;0.90;;;11.90;85.60;;;;;;5032040;28;20508;-77
2024/02/25 04:37:14;;;;;;;1.42;0.80;;;11.90;85.80;;;;;;5032299;28;20115;-78
2024/02/25 04:39:41;;;;;;;1.15;0.80;;;11.90;85.80;;;;;;5032160;28;20051;-79
2024/02/25 04:42:06;;;;;;;1.05;0.80;;;11.90;85.60;;;;;;5049720;28;20028;-78
2024/02/25 04:44:32;;;;;;;1.52;0.80;;;11.90;85.60;;;;;;5050689;28;20516;-78
2024/02/25 04:46:58;;;;;;;1.75;0.80;;;11.90;85.60;;;;;;5036165;28;20021;-79
2024/02/25 04:49:24;;;;;;;0.90;0.75;;;11.90;85.70;;;;;;5054097;28;20030;-79
2024/02/25 04:51:49;;;;;;;2.08;0.90;;;11.90;86.00;;;;;;5035987;28;20458;-78
2024/02/25 04:54:15;;;;;;;2.35;1.00;;;11.90;86.20;;;;;;5036205;28;20119;-78
2024/02/25 04:56:44;;;;;;;1.85;0.93;;;11.90;85.70;;;;;;5054252;28;20027;-78
2024/02/25 04:59:10;;;;;;;1.65;0.80;;;11.90;85.90;;;;;;5036488;28;20039;-78
2024/02/25 05:01:46;;;;;;;2.25;0.90;;;11.90;86.00;;;;;;5053624;28;20021;-78
2024/02/25 05:04:12;;;;;;;0.98;0.88;;;11.90;85.80;;;;;;5035762;28;20036;-78
2024/02/25 05:06:37;;;;;;;1.17;0.80;;;11.90;85.70;;;;;;5053778;28;20099;-77
2024/02/25 05:09:03;;;;;;;1.70;0.90;;;11.90;85.70;;;;;;5036176;28;20543;-78
2024/02/25 05:11:30;;;;;;;1.42;0.80;;;11.90;85.80;;;;;;5054293;28;20060;-78
2024/02/25 05:13:55;;;;;;;1.40;0.82;;;11.90;85.90;;;;;;5035632;28;20055;-78
2024/02/25 05:16:21;;;;;;;2.33;1.10;;;11.90;85.50;;;;;;5036135;28;20025;-79
2024/02/25 05:18:46;;;;;;;1.85;0.95;;;11.90;85.80;;;;;;5035698;28;20055;-77
2024/02/25 05:21:12;;;;;;;1.23;0.90;;;11.90;86.00;;;;;;5035902;28;20474;-78
2024/02/25 05:23:38;;;;;;;1.10;0.90;;;11.90;86.10;;;;;;5035432;28;20021;-76
2024/02/25 05:26:03;;;;;;;1.40;0.80;;;11.90;86.10;;;;;;5035631;28;20051;-78
2024/02/25 05:28:29;;;;;;;2.03;1.00;;;11.90;86.10;;;;;;5035211;28;20422;-78
2024/02/25 05:30:54;;;;;;;2.20;1.00;;;11.90;86.20;;;;;;5035318;28;20627;-78
2024/02/25 05:33:20;;;;;;;1.77;0.95;;;11.90;86.30;;;;;;5035391;28;20033;-78
2024/02/25 05:35:45;;;;;;;1.58;0.80;;;11.90;86.30;;;;;;5035325;28;20067;-78
2024/02/25 05:38:11;;;;;;;1.85;0.90;;;11.90;86.10;;;;;;5053203;28;20029;-78
2024/02/25 05:40:40;;;;;;;1.42;0.95;;;11.90;86.30;;;;;;5035292;28;20025;-78
2024/02/25 05:43:09;;;;;;;1.42;0.80;;;11.90;86.40;;;;;;5052867;28;20032;-78
2024/02/25 05:45:35;;;;;;;1.60;0.90;;;11.90;86.20;;;;;;5035538;28;20535;-78
2024/02/25 05:48:01;;;;;;;1.40;0.90;;;11.90;86.20;;;;;;5034963;28;20029;-78
2024/02/25 05:50:26;;;;;;;1.50;0.90;;;11.90;86.40;;;;;;5052942;28;20029;-78
2024/02/25 05:52:52;;;;;;;1.52;1.00;;;11.90;86.30;;;;;;5034470;28;20175;-79
2024/02/25 05:55:18;;;;;;;1.95;0.95;;;11.90;86.40;;;;;;5034662;28;20036;-78
2024/02/25 05:57:43;;;;;;;1.63;1.00;;;11.90;86.50;;;;;;5033304;28;20025;-78
2024/02/25 06:00:11;;;;;;;1.95;1.10;;;11.90;86.40;;;;;;5034707;28;20444;-77
2024/02/25 06:02:39;;;;;;;1.30;1.00;;;11.90;86.30;;;;;;5034737;28;20110;-76
2024/02/25 06:05:09;;;;;;;1.70;1.10;;;11.90;86.40;;;;;;5053018;28;20024;-78
2024/02/25 06:07:34;;;;;;;1.50;0.98;;;11.90;86.10;;;;;;5033313;28;20033;-79
2024/02/25 06:10:00;;;;;;;1.42;0.90;;;11.90;86.30;;;;;;5052362;28;20381;-76
2024/02/25 06:12:25;;;;;;;1.75;1.00;;;11.90;86.40;;;;;;5034264;28;20481;-77
2024/02/25 06:14:51;;;;;;;2.30;1.15;;;11.90;86.50;;;;;;5034603;28;20052;-78
2024/02/25 06:17:16;;;;;;;2.05;1.00;;;11.90;86.50;;;;;;5034512;28;20112;-76
2024/02/25 06:19:42;;;;;;;2.65;1.02;;;11.90;86.60;;;;;;5034407;28;20108;-78
2024/02/25 06:22:07;;;;;;;1.23;1.00;;;11.80;86.50;;;;;;5051979;28;20037;-76
2024/02/25 06:24:33;;;;;;;1.85;1.00;;;11.90;86.40;;;;;;5034537;28;20028;-77
2024/02/25 06:26:58;;;;;;;1.45;0.90;;;11.90;86.50;;;;;;5034108;28;20568;-76
2024/02/25 06:29:24;;;;;;;2.10;1.10;;;11.80;86.50;;;;;;5052084;28;20036;-76
2024/02/25 06:31:50;;;;;;;1.42;0.98;;;11.90;86.60;;;;;;5051802;28;20024;-76
2024/02/25 06:34:15;;;;;;;1.40;0.95;;;11.80;86.30;;;;;;5034113;28;20501;-77
2024/02/25 06:36:41;;;;;;;2.67;1.20;;;11.90;86.50;;;;;;5051936;28;20025;-76
2024/02/25 06:39:08;;;;;;;1.60;0.93;;;11.90;86.60;;;;;;5034161;28;20247;-76
2024/02/25 06:41:34;;;;;;;1.52;0.82;;;11.90;86.50;;;;;;5034072;28;20047;-76
2024/02/25 06:43:59;;;;;;;0.90;0.80;;;11.90;86.50;;;;;;5033598;28;20033;-77
2024/02/25 06:46:25;;;;;;;1.98;0.90;;;11.80;86.40;;;;;;5033955;28;20019;-76
2024/02/25 06:48:51;;;;;;;1.80;1.10;;;11.80;86.30;;;;;;5052115;28;20100;-76
2024/02/25 06:51:26;;;;;;;1.95;1.00;;;11.80;86.50;;;;;;5033725;28;20108;-77
2024/02/25 06:53:52;;;;;;;1.75;0.90;;;11.80;86.40;;;;;;5033560;28;20040;-75
2024/02/25 06:56:18;;;;;;;1.23;0.90;;;11.80;86.30;;;;;;5033764;28;20124;-78
2024/02/25 06:58:44;;;;;;;1.65;0.98;;;11.90;86.50;;;;;;5033797;28;20116;-78
2024/02/25 07:01:13;;;;;;;1.70;0.90;;;11.80;86.10;;;;;;5033847;28;20247;-78
2024/02/25 07:03:45;;;;;;;2.13;1.10;;;11.80;86.30;;;;;;5033304;28;20063;-77
2024/02/25 07:06:14;;;;;;;1.63;0.90;;;11.90;86.40;;;;;;5050553;28;20032;-78
2024/02/25 07:08:40;;;;;;;1.98;0.98;;;11.90;86.50;;;;;;5027798;28;20083;-79
2024/02/25 07:11:20;;;;;;;1.77;1.00;;;11.80;86.30;;;;;;5045154;28;20044;-79
2024/02/25 07:13:46;;;;;;;1.67;1.08;;;11.90;86.40;;;;;;5043218;28;20037;-79
2024/02/25 07:16:12;;;;;;;1.42;0.98;;;11.80;86.70;;;;;;5029029;28;20040;-78
2024/02/25 07:18:38;;;;;;;1.60;0.90;;;11.90;86.00;;;;;;5047545;28;20401;-79
2024/02/25 07:21:04;;;;;;;1.65;1.00;;;11.80;86.20;;;;;;5046346;28;20041;-76
2024/02/25 07:23:30;;;;;;;1.92;1.00;;;11.80;86.30;;;;;;5026057;28;20494;-77
2024/02/25 07:25:55;;;;;;;1.75;0.90;;;11.80;86.40;;;;;;5044194;28;20025;-78
2024/02/25 07:28:20;;;;;;;0.98;0.85;;;11.80;86.50;;;;;;5025915;28;20028;-78
2024/02/25 07:30:46;;;;;;;1.75;0.90;;;11.80;86.40;;;;;;5046439;28;20028;-78
2024/02/25 07:33:11;;;;;;;2.25;1.00;;;11.90;86.90;;;;;;5026935;28;20599;-77
2024/02/25 07:35:37;;;;;;;1.23;0.80;;;11.90;86.40;;;;;;5027315;28;20063;-76
2024/02/25 07:38:02;;;;;;;1.42;0.73;;;11.80;86.40;;;;;;5045562;28;20036;-75
2024/02/25 07:40:28;;;;;;;1.77;0.90;;;11.80;86.40;;;;;;5045625;28;20044;-76
2024/02/25 07:42:53;;;;;;;1.50;1.00;;;11.80;86.40;;;;;;5026522;28;20725;-77
2024/02/25 07:45:19;;;;;;;2.15;0.90;;;11.90;86.40;;;;;;5044991;28;20028;-76
2024/02/25 07:47:44;;;;;;;1.73;1.10;;;11.90;86.40;;;;;;5044966;28;20095;-77
2024/02/25 07:50:10;;;;;;;2.38;1.02;;;11.80;86.40;;;;;;5026826;28;20048;-76
2024/02/25 07:52:36;;;;;;;1.13;0.70;;;11.90;86.50;;;;;;5044769;28;20029;-76
2024/02/25 07:55:02;;;;;;;1.48;1.00;;;11.90;86.40;;;;;;5044504;28;20036;-76
2024/02/25 07:57:27;;;;;;;2.00;0.98;;;11.80;86.40;;;;;;5026617;28;20021;-75
2024/02/25 07:59:53;;;;;;;2.30;1.00;;;11.80;86.50;;;;;;5026772;28;20056;-76
2024/02/25 08:02:18;;;;;;;1.42;0.90;;;11.80;86.40;;;;;;5026776;28;20033;-76
2024/02/25 08:04:44;;;;;;;1.10;0.80;;;11.90;86.40;;;;;;5044918;28;20485;-76
2024/02/25 08:07:09;;;;;;;1.30;0.90;;;11.80;86.30;;;;;;5027674;28;20021;-77
2024/02/25 08:09:35;;;;;;;2.40;1.10;;;11.90;86.30;;;;;;5027049;28;20028;-75
2024/02/25 08:12:01;;;;;;;1.52;0.90;;;11.90;86.50;;;;;;5044689;28;20025;-76
2024/02/25 08:14:26;;;;;;;1.77;0.90;;;11.90;86.20;;;;;;5027143;28;20032;-75
2024/02/25 08:16:52;;;;;;;1.58;0.90;;;11.90;86.50;;;;;;5027018;28;20489;-76
2024/02/25 08:19:17;;;;;;;1.70;1.00;;;11.90;86.50;;;;;;5045309;28;20113;-77
2024/02/25 08:21:43;;;;;;;1.85;0.90;;;11.80;86.30;;;;;;5025853;28;20025;-77
2024/02/25 08:24:08;;;;;;;1.38;0.85;;;11.80;86.40;;;;;;5026911;28;20307;-77
2024/02/25 08:26:34;;;;;;;1.75;1.02;;;11.90;86.20;;;;;;5026752;28;20044;-77
2024/02/25 08:29:00;;;;;;;1.77;1.00;;;11.80;86.00;;;;;;5028357;28;20434;-77
2024/02/25 08:31:25;;;;;;;0.98;0.80;;;11.90;86.40;;;;;;5045449;28;20036;-77
2024/02/25 08:33:51;;;;;;;2.08;0.90;;;11.90;86.40;;;;;;5045403;28;20033;-76
2024/02/25 08:36:16;;;;;;;1.65;0.90;;;11.90;86.20;;;;;;5027568;28;20720;-77
2024/02/25 08:38:42;;;;;;;1.75;1.00;;;11.90;86.10;;;;;;5027107;28;20397;-77
2024/02/25 08:41:08;;;;;;;2.55;1.08;;;11.90;86.00;;;;;;5044868;28;20413;-77
2024/02/25 08:43:33;;;;;;;1.52;0.70;;;11.90;86.20;;;;;;5027267;28;20025;-76
2024/02/25 08:45:59;;;;;;;1.33;0.90;;;11.90;86.70;;;;;;5027567;28;20170;-75
2024/02/25 08:48:24;;;;;;;1.88;1.00;;;11.90;86.20;;;;;;5027386;28;20082;-78
2024/02/25 08:50:50;;;;;;;1.65;0.90;;;11.90;86.20;;;;;;5045754;28;20227;-77
2024/02/25 08:53:15;;;;;;;2.10;0.80;;;11.90;86.40;;;;;;5045209;28;20507;-76
2024/02/25 08:55:41;;;;;;;2.63;1.05;;;11.90;86.60;;;;;;5027968;28;20067;-77
2024/02/25 08:58:07;;;;;;;1.55;0.80;;;11.90;86.40;;;;;;5022161;28;20473;-77
2024/02/25 09:00:33;;;;;;;3.05;1.02;;;11.90;86.00;;;;;;5043427;28;20033;-76
2024/02/25 09:03:00;;;;;;;2.53;0.93;;;11.90;86.00;;;;;;5043401;28;20033;-76
2024/02/25 09:05:26;;;;;;;1.38;0.90;;;11.90;85.80;;;;;;5026232;28;20033;-76
2024/02/25 09:07:53;;;;;;;1.25;0.90;;;11.90;85.60;;;;;;5025571;28;20043;-76
2024/02/25 09:10:19;;;;;;;1.98;0.98;;;11.90;85.70;;;;;;5025728;28;20028;-77
2024/02/25 09:12:47;;;;;;;5.28;1.02;;;11.90;85.70;;;;;;5025737;28;20443;-76
2024/02/25 09:15:14;;;;;;;2.33;0.90;;;11.90;85.60;;;;;;5044274;28;20025;-79
2024/02/25 09:17:40;;;;;;;2.80;1.00;;;11.90;85.70;;;;;;5027145;28;20057;-77
2024/02/25 09:20:06;;;;;;;1.60;0.90;;;11.90;85.80;;;;;;5026976;28;20355;-77
2024/02/25 09:22:31;;;;;;;1.20;0.82;;;11.90;86.00;;;;;;5027072;28;20028;-78
2024/02/25 09:24:57;;;;;;;2.50;0.80;;;11.90;86.10;;;;;;5026282;28;20116;-76
2024/02/25 09:27:22;;;;;;;2.03;1.00;;;11.90;86.10;;;;;;5026531;28;20116;-78
2024/02/25 09:29:49;;;;;;;2.05;0.98;;;12.00;85.90;;;;;;5026202;28;20394;-76
2024/02/25 09:32:14;;;;;;;2.53;0.85;;;11.90;86.00;;;;;;5029342;28;20075;-77
2024/02/25 09:34:40;;;;;;;1.83;1.00;;;11.90;85.90;;;;;;5029692;28;20024;-76
2024/02/25 09:37:06;;;;;;;1.95;0.90;;;12.00;86.20;;;;;;5029696;28;20040;-77
2024/02/25 09:39:31;;;;;;;1.20;0.75;;;11.90;86.20;;;;;;5047731;28;20267;-76
2024/02/25 09:41:57;;;;;;;1.98;0.90;;;12.00;86.40;;;;;;5029628;28;20029;-76
2024/02/25 09:44:24;;;;;;;1.20;0.88;;;11.90;86.40;;;;;;5047763;28;20069;-78
2024/02/25 09:46:55;;;;;;;1.40;0.77;;;12.00;86.50;;;;;;5030311;28;20021;-78
2024/02/25 09:49:24;;;;;;;1.98;1.02;;;12.00;86.40;;;;;;5031668;28;20025;-77
2024/02/25 09:51:51;;;;;;;1.73;1.02;;;12.00;86.40;;;;;;5030458;28;20049;-79
2024/02/25 09:54:16;;;;;;;1.58;0.73;;;12.00;86.50;;;;;;5048865;28;20393;-77
2024/02/25 09:56:49;;;;;;;1.15;0.70;;;12.00;86.60;;;;;;5030992;28;20036;-77
2024/02/25 09:59:15;;;;;;;2.40;0.93;;;12.00;86.50;;;;;;5030636;28;20389;-77
2024/02/25 10:01:45;;;;;;;1.70;0.90;;;12.00;86.30;;;;;;5029343;28;20029;-77
2024/02/25 10:04:11;;;;;;;1.20;0.70;;;12.00;86.50;;;;;;5030336;28;20063;-78
2024/02/25 10:06:40;;;;;;;1.88;0.85;;;12.00;86.30;;;;;;5030708;28;20028;-77
2024/02/25 10:09:08;;;;;;;1.85;0.90;;;11.90;86.20;;;;;;5030186;28;20032;-78
2024/02/25 10:11:34;;;;;;;1.73;0.70;;;11.90;86.20;;;;;;5026692;28;20028;-77
2024/02/25 10:13:59;;;;;;;1.27;0.90;;;12.00;86.30;;;;;;5046156;28;20036;-77
2024/02/25 10:16:26;;;;;;;1.90;0.90;;;12.00;86.40;;;;;;5028923;28;20033;-75
2024/02/25 10:18:52;;;;;;;1.20;0.85;;;12.00;86.40;;;;;;5010916;28;20025;-75
2024/02/25 10:21:20;;;;;;;1.08;0.80;;;12.00;86.20;;;;;;5050875;28;20478;-79
2024/02/25 10:23:53;;;;;;;0.95;0.65;;;12.00;86.40;;;;;;5035702;28;20133;-77
2024/02/25 10:26:20;;;;;;;1.85;0.88;;;11.90;86.50;;;;;;5036645;28;20455;-77
2024/02/25 10:28:46;;;;;;;1.70;0.80;;;12.00;86.60;;;;;;5035424;28;20112;-77
2024/02/25 10:31:14;;;;;;;1.02;0.68;;;12.00;86.40;;;;;;5054487;28;20458;-76
2024/02/25 10:33:41;;;;;;;1.67;0.88;;;12.00;86.60;;;;;;5035487;28;20033;-78
2024/02/25 10:36:08;;;;;;;2.35;0.80;;;12.00;86.60;;;;;;5035299;28;20039;-78
2024/02/25 10:38:38;;;;;;;1.10;0.70;;;12.00;86.50;;;;;;5035322;28;20405;-76
2024/02/25 10:41:08;;;;;;;1.33;0.82;;;12.00;86.60;;;;;;5034370;28;20033;-76
2024/02/25 10:43:34;;;;;;;1.13;0.70;;;12.00;86.50;;;;;;5033807;28;20095;-75
2024/02/25 10:46:11;;;;;;;1.25;0.90;;;12.00;86.70;;;;;;5050249;28;20035;-76
2024/02/25 10:48:37;;;;;;;1.67;0.80;;;12.00;86.70;;;;;;5028439;28;20035;-76
2024/02/25 10:51:03;;;;;;;2.08;0.88;;;12.00;86.50;;;;;;5027903;28;20032;-75
2024/02/25 10:53:30;;;;;;;1.48;0.75;;;12.00;86.60;;;;;;5029016;28;20519;-78
2024/02/25 10:55:58;;;;;;;2.35;0.80;;;12.00;86.50;;;;;;5028505;28;20029;-77
2024/02/25 10:58:26;;;;;;;1.13;0.70;;;12.00;86.40;;;;;;5028317;28;20033;-76
2024/02/25 11:00:53;;;;;;;1.30;0.90;;;12.00;86.60;;;;;;5028528;28;20035;-77
2024/02/25 11:03:20;;;;;;;2.47;0.77;;;12.00;86.40;;;;;;5026969;28;20505;-77
2024/02/25 11:05:46;;;;;;;2.30;0.73;;;12.00;86.60;;;;;;5043612;28;20024;-76
2024/02/25 11:08:11;;;;;;;2.95;0.88;;;12.00;86.50;;;;;;5045483;28;20385;-77
2024/02/25 11:10:37;;;;;;;2.45;0.80;;;12.00;86.60;;;;;;5028454;28;20516;-78
2024/02/25 11:13:09;;;;;;;3.17;0.93;;;12.00;86.60;;;;;;5046110;28;20296;-77
2024/02/25 11:15:36;;;;;;;3.20;1.10;;;12.00;86.80;;;;;;5029413;28;20055;-76
2024/02/25 11:18:05;;;;;;;59.97;7.60;;;12.00;86.70;;;;;;5027502;28;20028;-77
2024/02/25 11:20:33;;;;;;;73.43;10.20;;;12.00;86.50;;;;;;5029183;28;20772;-78
2024/02/25 11:22:58;;;;;;;33.00;5.78;;;12.00;86.40;;;;;;5045528;28;20033;-79
2024/02/25 11:25:30;;;;;;;56.50;7.97;;;11.90;85.90;;;;;;5047010;28;20315;-76
2024/02/25 11:27:57;;;;;;;60.67;8.98;;;12.00;85.80;;;;;;5031145;28;20032;-77
2024/02/25 11:30:33;;;;;;;79.28;10.00;;;12.00;85.70;;;;;;5035037;28;20059;-78
2024/02/25 11:32:58;;;;;;;59.67;8.65;;;12.00;85.90;;;;;;5034986;28;20112;-80
2024/02/25 11:35:24;;;;;;;62.22;8.88;;;12.00;86.20;;;;;;5034900;28;20120;-78
2024/02/25 11:37:50;;;;;;;59.45;8.75;;;12.00;85.90;;;;;;5034523;28;20031;-78
2024/02/25 11:40:16;;;;;;;56.67;8.23;;;12.00;86.00;;;;;;5035043;28;20029;-77
2024/02/25 11:42:42;;;;;;;50.33;7.60;;;12.00;86.10;;;;;;5034452;28;20056;-77
2024/02/25 11:45:10;;;;;;;39.83;6.88;;;12.00;86.30;;;;;;5034335;28;20056;-76
2024/02/25 11:47:37;;;;;;;46.88;7.28;;;12.00;86.40;;;;;;5034556;28;20025;-77
2024/02/25 11:50:02;;;;;;;38.40;6.43;;;12.00;86.50;;;;;;5052456;28;20543;-81
2024/02/25 11:52:28;;;;;;;43.67;7.68;;;12.00;86.40;;;;;;5051812;28;20033;-77
2024/02/25 11:54:53;;;;;;;38.22;6.72;;;12.00;86.50;;;;;;5034007;28;20074;-77
2024/02/25 11:57:19;;;;;;;34.35;6.30;;;12.00;86.50;;;;;;5034125;28;20398;-77
2024/02/25 11:59:45;;;;;;;40.25;6.28;;;12.00;86.50;;;;;;5033746;28;20064;-77
2024/02/25 12:02:11;;;;;;;34.13;5.88;;;12.10;86.40;;;;;;5033537;28;20025;-76
2024/02/25 12:04:37;;;;;;;40.55;5.63;;;12.00;86.40;;;;;;5050606;28;20033;-77
2024/02/25 12:07:04;;;;;;;32.00;5.10;;;12.00;86.40;;;;;;5051169;28;20104;-76
2024/02/25 12:09:30;;;;;;;30.05;6.00;;;12.10;86.40;;;;;;5034259;28;20115;-79
2024/02/25 12:11:56;;;;;;;40.05;7.32;;;12.10;86.50;;;;;;5049808;28;20500;-78
2024/02/25 12:14:21;;;;;;;31.35;5.50;;;12.10;86.20;;;;;;5033162;28;20477;-77
2024/02/25 12:16:48;;;;;;;29.50;5.18;;;12.20;86.20;;;;;;5033576;28;20115;-77
2024/02/25 12:19:18;;;;;;;36.47;5.55;;;12.20;86.10;;;;;;5050332;28;20503;-77
2024/02/25 12:21:51;;;;;;;34.70;5.80;;;12.20;86.10;;;;;;5050697;28;20068;-76
2024/02/25 12:24:16;;;;;;;34.67;5.60;;;12.20;86.00;;;;;;5050387;28;20025;-77
2024/02/25 12:26:55;;;;;;;39.60;6.07;;;12.30;86.00;;;;;;5033105;28;20025;-77
2024/02/25 12:29:22;;;;;;;32.00;5.85;;;12.30;85.70;;;;;;5050271;28;20040;-75
2024/02/25 12:31:48;;;;;;;34.60;5.88;;;12.20;85.70;;;;;;5032272;28;20051;-76
2024/02/25 12:34:14;;;;;;;31.38;6.68;;;12.30;85.50;;;;;;5050082;28;20467;-76
2024/02/25 12:36:44;;;;;;;47.45;7.53;;;12.40;85.70;;;;;;5050103;28;20036;-76
2024/02/25 12:39:12;;;;;;;44.85;7.20;;;12.30;85.50;;;;;;5032137;28;20024;-75